sensor_id;sensor_type;location;lat;lon;timestamp;P1;durP1;ratioP1;P2;durP2;ratioP2
7013;SDS011;3547;50.774;12.918;2023-05-10T00:00:32;2.00;;;1.73;;
7013;SDS011;3547;50.774;12.918;2023-05-10T00:03:26;1.60;;;1.50;;
7013;SDS011;3547;50.774;12.918;2023-05-10T00:05:55;2.27;;;1.80;;
7013;SDS011;3547;50.774;12.918;2023-05-10T00:11:45;1.97;;;1.50;;
7013;SDS011;3547;50.774;12.918;2023-05-10T00:14:13;2.00;;;1.80;;
7013;SDS011;3547;50.774;12.918;2023-05-10T00:16:59;2.57;;;1.57;;
7013;SDS011;3547;50.774;12.918;2023-05-10T00:19:46;1.70;;;1.60;;
7013;SDS011;3547;50.774;12.918;2023-05-10T00:22:30;3.90;;;1.60;;
7013;SDS011;3547;50.774;12.918;2023-05-10T00:25:18;2.00;;;1.50;;
7013;SDS011;3547;50.774;12.918;2023-05-10T00:27:44;2.73;;;1.43;;
7013;SDS011;3547;50.774;12.918;2023-05-10T00:30:11;2.90;;;2.60;;
7013;SDS011;3547;50.774;12.918;2023-05-10T00:32:37;2.17;;;1.67;;
7013;SDS011;3547;50.774;12.918;2023-05-10T00:35:04;1.77;;;1.40;;
7013;SDS011;3547;50.774;12.918;2023-05-10T00:37:32;2.17;;;1.93;;
7013;SDS011;3547;50.774;12.918;2023-05-10T00:44:22;1.93;;;1.60;;
7013;SDS011;3547;50.774;12.918;2023-05-10T00:46:50;2.27;;;1.50;;
7013;SDS011;3547;50.774;12.918;2023-05-10T00:49:19;2.80;;;1.53;;
7013;SDS011;3547;50.774;12.918;2023-05-10T00:51:47;1.80;;;1.50;;
7013;SDS011;3547;50.774;12.918;2023-05-10T00:54:14;2.60;;;1.97;;
7013;SDS011;3547;50.774;12.918;2023-05-10T00:56:41;1.90;;;1.73;;
7013;SDS011;3547;50.774;12.918;2023-05-10T00:59:09;2.50;;;2.00;;
7013;SDS011;3547;50.774;12.918;2023-05-10T01:01:35;2.40;;;1.80;;
7013;SDS011;3547;50.774;12.918;2023-05-10T01:04:05;2.43;;;1.70;;
7013;SDS011;3547;50.774;12.918;2023-05-10T01:06:31;1.63;;;1.40;;
7013;SDS011;3547;50.774;12.918;2023-05-10T01:08:57;2.33;;;1.77;;
7013;SDS011;3547;50.774;12.918;2023-05-10T01:11:24;2.17;;;1.63;;
7013;SDS011;3547;50.774;12.918;2023-05-10T01:13:56;2.50;;;1.67;;
7013;SDS011;3547;50.774;12.918;2023-05-10T01:16:29;1.57;;;1.47;;
7013;SDS011;3547;50.774;12.918;2023-05-10T01:18:58;1.60;;;1.50;;
7013;SDS011;3547;50.774;12.918;2023-05-10T01:35:10;3.07;;;2.10;;
7013;SDS011;3547;50.774;12.918;2023-05-10T01:41:15;2.47;;;1.70;;
7013;SDS011;3547;50.774;12.918;2023-05-10T01:43:56;2.83;;;1.73;;
7013;SDS011;3547;50.774;12.918;2023-05-10T01:46:25;1.70;;;1.60;;
7013;SDS011;3547;50.774;12.918;2023-05-10T01:49:09;2.17;;;1.70;;
7013;SDS011;3547;50.774;12.918;2023-05-10T01:51:56;2.53;;;1.80;;
7013;SDS011;3547;50.774;12.918;2023-05-10T01:54:32;4.33;;;1.97;;
7013;SDS011;3547;50.774;12.918;2023-05-10T01:57:05;2.40;;;2.00;;
7013;SDS011;3547;50.774;12.918;2023-05-10T02:00:24;1.60;;;1.33;;
7013;SDS011;3547;50.774;12.918;2023-05-10T02:02:55;1.50;;;1.40;;
7013;SDS011;3547;50.774;12.918;2023-05-10T02:05:22;2.87;;;1.87;;
7013;SDS011;3547;50.774;12.918;2023-05-10T02:07:49;3.10;;;1.60;;
7013;SDS011;3547;50.774;12.918;2023-05-10T02:10:22;2.47;;;1.80;;
7013;SDS011;3547;50.774;12.918;2023-05-10T02:24:08;1.77;;;1.57;;
7013;SDS011;3547;50.774;12.918;2023-05-10T02:42:13;6.40;;;2.50;;
7013;SDS011;3547;50.774;12.918;2023-05-10T02:44:50;2.73;;;1.93;;
7013;SDS011;3547;50.774;12.918;2023-05-10T02:48:13;2.07;;;1.70;;
7013;SDS011;3547;50.774;12.918;2023-05-10T02:50:40;2.13;;;1.93;;
7013;SDS011;3547;50.774;12.918;2023-05-10T03:03:43;2.80;;;1.67;;
7013;SDS011;3547;50.774;12.918;2023-05-10T03:06:12;1.87;;;1.53;;
7013;SDS011;3547;50.774;12.918;2023-05-10T03:08:46;2.83;;;1.87;;
7013;SDS011;3547;50.774;12.918;2023-05-10T03:40:50;2.87;;;2.00;;
7013;SDS011;3547;50.774;12.918;2023-05-10T04:12:07;2.70;;;1.83;;
7013;SDS011;3547;50.774;12.918;2023-05-10T04:14:35;2.90;;;2.20;;
7013;SDS011;3547;50.774;12.918;2023-05-10T04:17:11;3.63;;;1.93;;
7013;SDS011;3547;50.774;12.918;2023-05-10T04:19:55;3.07;;;1.63;;
7013;SDS011;3547;50.774;12.918;2023-05-10T04:26:24;2.53;;;2.00;;
7013;SDS011;3547;50.774;12.918;2023-05-10T04:57:02;1.87;;;1.73;;
7013;SDS011;3547;50.774;12.918;2023-05-10T04:59:51;2.27;;;1.60;;
7013;SDS011;3547;50.774;12.918;2023-05-10T05:02:27;1.67;;;1.33;;
7013;SDS011;3547;50.774;12.918;2023-05-10T05:04:56;3.67;;;1.60;;
7013;SDS011;3547;50.774;12.918;2023-05-10T05:07:23;2.20;;;1.70;;
7013;SDS011;3547;50.774;12.918;2023-05-10T05:09:50;2.57;;;2.17;;
7013;SDS011;3547;50.774;12.918;2023-05-10T05:12:17;3.43;;;1.80;;
7013;SDS011;3547;50.774;12.918;2023-05-10T05:14:45;1.53;;;1.43;;
7013;SDS011;3547;50.774;12.918;2023-05-10T05:17:11;1.57;;;1.47;;
7013;SDS011;3547;50.774;12.918;2023-05-10T05:19:41;2.20;;;1.47;;
7013;SDS011;3547;50.774;12.918;2023-05-10T05:22:09;2.17;;;1.60;;
7013;SDS011;3547;50.774;12.918;2023-05-10T05:24:41;2.10;;;1.57;;
7013;SDS011;3547;50.774;12.918;2023-05-10T05:27:13;1.57;;;1.40;;
7013;SDS011;3547;50.774;12.918;2023-05-10T05:29:42;2.23;;;1.67;;
7013;SDS011;3547;50.774;12.918;2023-05-10T05:32:10;4.90;;;2.23;;
7013;SDS011;3547;50.774;12.918;2023-05-10T05:34:45;4.10;;;1.40;;
7013;SDS011;3547;50.774;12.918;2023-05-10T05:37:18;2.33;;;1.70;;
7013;SDS011;3547;50.774;12.918;2023-05-10T05:39:51;4.93;;;1.70;;
7013;SDS011;3547;50.774;12.918;2023-05-10T05:42:30;2.00;;;1.80;;
7013;SDS011;3547;50.774;12.918;2023-05-10T05:44:59;1.97;;;1.57;;
7013;SDS011;3547;50.774;12.918;2023-05-10T05:47:26;2.43;;;2.10;;
7013;SDS011;3547;50.774;12.918;2023-05-10T05:52:44;2.07;;;1.73;;
7013;SDS011;3547;50.774;12.918;2023-05-10T05:55:24;2.00;;;1.80;;
7013;SDS011;3547;50.774;12.918;2023-05-10T05:57:52;1.60;;;1.50;;
7013;SDS011;3547;50.774;12.918;2023-05-10T06:00:52;5.63;;;2.00;;
7013;SDS011;3547;50.774;12.918;2023-05-10T06:03:20;2.07;;;1.60;;
7013;SDS011;3547;50.774;12.918;2023-05-10T06:05:49;1.57;;;1.43;;
7013;SDS011;3547;50.774;12.918;2023-05-10T06:08:37;2.03;;;1.57;;
7013;SDS011;3547;50.774;12.918;2023-05-10T06:11:28;3.30;;;1.83;;
7013;SDS011;3547;50.774;12.918;2023-05-10T06:13:57;2.73;;;1.47;;
7013;SDS011;3547;50.774;12.918;2023-05-10T06:16:47;1.93;;;1.60;;
7013;SDS011;3547;50.774;12.918;2023-05-10T06:19:21;2.60;;;2.37;;
7013;SDS011;3547;50.774;12.918;2023-05-10T06:21:50;1.70;;;1.40;;
7013;SDS011;3547;50.774;12.918;2023-05-10T06:24:37;2.87;;;2.00;;
7013;SDS011;3547;50.774;12.918;2023-05-10T06:27:06;1.70;;;1.60;;
7013;SDS011;3547;50.774;12.918;2023-05-10T06:29:32;2.10;;;1.87;;
7013;SDS011;3547;50.774;12.918;2023-05-10T06:32:01;2.53;;;1.87;;
7013;SDS011;3547;50.774;12.918;2023-05-10T06:34:31;1.73;;;1.63;;
7013;SDS011;3547;50.774;12.918;2023-05-10T06:37:31;1.60;;;1.30;;
7013;SDS011;3547;50.774;12.918;2023-05-10T06:40:21;2.43;;;1.90;;
7013;SDS011;3547;50.774;12.918;2023-05-10T06:46:11;2.47;;;2.00;;
7013;SDS011;3547;50.774;12.918;2023-05-10T06:48:39;2.20;;;1.67;;
7013;SDS011;3547;50.774;12.918;2023-05-10T06:51:06;2.40;;;1.50;;
7013;SDS011;3547;50.774;12.918;2023-05-10T06:53:32;1.92;;;1.48;;
7013;SDS011;3547;50.774;12.918;2023-05-10T06:55:59;1.70;;;1.55;;
7013;SDS011;3547;50.774;12.918;2023-05-10T06:58:25;1.80;;;1.65;;
7013;SDS011;3547;50.774;12.918;2023-05-10T07:00:51;2.95;;;1.60;;
7013;SDS011;3547;50.774;12.918;2023-05-10T07:10:17;1.63;;;1.45;;
7013;SDS011;3547;50.774;12.918;2023-05-10T07:12:43;1.70;;;1.60;;
7013;SDS011;3547;50.774;12.918;2023-05-10T07:15:11;1.90;;;1.50;;
7013;SDS011;3547;50.774;12.918;2023-05-10T07:17:52;4.05;;;2.20;;
7013;SDS011;3547;50.774;12.918;2023-05-10T07:20:19;2.08;;;1.83;;
7013;SDS011;3547;50.774;12.918;2023-05-10T07:22:45;2.20;;;1.83;;
7013;SDS011;3547;50.774;12.918;2023-05-10T07:25:11;2.03;;;1.70;;
7013;SDS011;3547;50.774;12.918;2023-05-10T07:27:37;1.95;;;1.50;;
7013;SDS011;3547;50.774;12.918;2023-05-10T07:30:04;1.90;;;1.70;;
7013;SDS011;3547;50.774;12.918;2023-05-10T07:32:35;2.10;;;1.90;;
7013;SDS011;3547;50.774;12.918;2023-05-10T07:35:01;1.75;;;1.60;;
7013;SDS011;3547;50.774;12.918;2023-05-10T07:37:28;2.00;;;1.52;;
7013;SDS011;3547;50.774;12.918;2023-05-10T07:39:54;1.63;;;1.52;;
7013;SDS011;3547;50.774;12.918;2023-05-10T07:42:21;1.85;;;1.63;;
7013;SDS011;3547;50.774;12.918;2023-05-10T07:44:47;2.30;;;1.98;;
7013;SDS011;3547;50.774;12.918;2023-05-10T07:47:14;2.25;;;1.92;;
7013;SDS011;3547;50.774;12.918;2023-05-10T07:49:40;2.03;;;1.70;;
7013;SDS011;3547;50.774;12.918;2023-05-10T07:52:06;1.92;;;1.60;;
7013;SDS011;3547;50.774;12.918;2023-05-10T07:54:32;1.77;;;1.67;;
7013;SDS011;3547;50.774;12.918;2023-05-10T07:56:59;2.70;;;1.90;;
7013;SDS011;3547;50.774;12.918;2023-05-10T07:59:26;1.95;;;1.75;;
7013;SDS011;3547;50.774;12.918;2023-05-10T08:01:52;2.40;;;1.90;;
7013;SDS011;3547;50.774;12.918;2023-05-10T08:04:18;2.63;;;1.88;;
7013;SDS011;3547;50.774;12.918;2023-05-10T08:06:44;4.03;;;1.77;;
7013;SDS011;3547;50.774;12.918;2023-05-10T08:09:14;2.25;;;1.83;;
7013;SDS011;3547;50.774;12.918;2023-05-10T08:11:54;2.90;;;1.80;;
7013;SDS011;3547;50.774;12.918;2023-05-10T08:14:29;2.85;;;2.35;;
7013;SDS011;3547;50.774;12.918;2023-05-10T08:37:45;2.53;;;1.85;;
7013;SDS011;3547;50.774;12.918;2023-05-10T08:40:11;3.60;;;1.90;;
7013;SDS011;3547;50.774;12.918;2023-05-10T08:46:08;2.45;;;2.10;;
7013;SDS011;3547;50.774;12.918;2023-05-10T08:52:06;2.80;;;2.13;;
7013;SDS011;3547;50.774;12.918;2023-05-10T08:54:39;2.78;;;2.05;;
7013;SDS011;3547;50.774;12.918;2023-05-10T08:57:06;3.00;;;2.50;;
7013;SDS011;3547;50.774;12.918;2023-05-10T08:59:35;6.45;;;1.70;;
7013;SDS011;3547;50.774;12.918;2023-05-10T09:02:04;2.63;;;1.80;;
7013;SDS011;3547;50.774;12.918;2023-05-10T09:04:34;1.70;;;1.60;;
7013;SDS011;3547;50.774;12.918;2023-05-10T09:07:00;4.53;;;2.00;;
7013;SDS011;3547;50.774;12.918;2023-05-10T09:09:27;3.60;;;1.80;;
7013;SDS011;3547;50.774;12.918;2023-05-10T09:11:53;2.05;;;1.85;;
7013;SDS011;3547;50.774;12.918;2023-05-10T09:14:20;6.70;;;2.05;;
7013;SDS011;3547;50.774;12.918;2023-05-10T09:16:47;2.05;;;1.73;;
7013;SDS011;3547;50.774;12.918;2023-05-10T09:19:35;2.10;;;1.90;;
7013;SDS011;3547;50.774;12.918;2023-05-10T09:22:03;6.20;;;1.92;;
7013;SDS011;3547;50.774;12.918;2023-05-10T09:24:32;3.28;;;1.90;;
7013;SDS011;3547;50.774;12.918;2023-05-10T09:26:59;2.33;;;2.10;;
7013;SDS011;3547;50.774;12.918;2023-05-10T09:29:30;2.03;;;1.77;;
7013;SDS011;3547;50.774;12.918;2023-05-10T09:32:07;2.53;;;2.15;;
7013;SDS011;3547;50.774;12.918;2023-05-10T09:34:33;1.88;;;1.70;;
7013;SDS011;3547;50.774;12.918;2023-05-10T09:37:08;1.95;;;1.70;;
7013;SDS011;3547;50.774;12.918;2023-05-10T09:39:43;6.18;;;1.85;;
7013;SDS011;3547;50.774;12.918;2023-05-10T09:42:09;2.47;;;1.92;;
7013;SDS011;3547;50.774;12.918;2023-05-10T09:47:34;4.38;;;1.98;;
7013;SDS011;3547;50.774;12.918;2023-05-10T09:50:01;1.92;;;1.83;;
7013;SDS011;3547;50.774;12.918;2023-05-10T09:52:30;2.60;;;2.00;;
7013;SDS011;3547;50.774;12.918;2023-05-10T09:58:35;2.45;;;2.25;;
7013;SDS011;3547;50.774;12.918;2023-05-10T10:01:03;2.72;;;2.03;;
7013;SDS011;3547;50.774;12.918;2023-05-10T10:03:30;2.58;;;2.22;;
7013;SDS011;3547;50.774;12.918;2023-05-10T10:09:22;2.35;;;2.15;;
7013;SDS011;3547;50.774;12.918;2023-05-10T10:14:28;5.75;;;2.55;;
7013;SDS011;3547;50.774;12.918;2023-05-10T10:16:55;4.05;;;2.33;;
7013;SDS011;3547;50.774;12.918;2023-05-10T10:19:27;2.45;;;2.13;;
7013;SDS011;3547;50.774;12.918;2023-05-10T10:36:01;2.45;;;2.25;;
7013;SDS011;3547;50.774;12.918;2023-05-10T10:39:05;2.15;;;1.95;;
7013;SDS011;3547;50.774;12.918;2023-05-10T10:41:35;2.72;;;2.40;;
7013;SDS011;3547;50.774;12.918;2023-05-10T10:49:37;2.65;;;2.03;;
7013;SDS011;3547;50.774;12.918;2023-05-10T10:55:12;3.15;;;2.47;;
7013;SDS011;3547;50.774;12.918;2023-05-10T11:02:57;2.83;;;2.35;;
7013;SDS011;3547;50.774;12.918;2023-05-10T11:09:07;3.45;;;1.98;;
7013;SDS011;3547;50.774;12.918;2023-05-10T11:11:54;3.67;;;2.33;;
7013;SDS011;3547;50.774;12.918;2023-05-10T11:23:12;4.80;;;3.38;;
7013;SDS011;3547;50.774;12.918;2023-05-10T11:28:19;7.35;;;4.72;;
7013;SDS011;3547;50.774;12.918;2023-05-10T11:30:46;7.97;;;5.53;;
7013;SDS011;3547;50.774;12.918;2023-05-10T11:33:16;11.70;;;6.97;;
7013;SDS011;3547;50.774;12.918;2023-05-10T11:41:06;5.97;;;2.85;;
7013;SDS011;3547;50.774;12.918;2023-05-10T11:44:30;6.15;;;3.67;;
7013;SDS011;3547;50.774;12.918;2023-05-10T11:47:00;4.88;;;2.55;;
7013;SDS011;3547;50.774;12.918;2023-05-10T11:49:27;2.95;;;2.55;;
7013;SDS011;3547;50.774;12.918;2023-05-10T11:52:11;3.97;;;3.03;;
7013;SDS011;3547;50.774;12.918;2023-05-10T11:54:58;6.43;;;4.13;;
7013;SDS011;3547;50.774;12.918;2023-05-10T11:57:28;5.18;;;3.25;;
7013;SDS011;3547;50.774;12.918;2023-05-10T12:00:04;7.30;;;3.20;;
7013;SDS011;3547;50.774;12.918;2023-05-10T12:02:33;6.88;;;4.97;;
7013;SDS011;3547;50.774;12.918;2023-05-10T12:05:03;3.60;;;2.80;;
7013;SDS011;3547;50.774;12.918;2023-05-10T12:07:31;5.07;;;3.08;;
7013;SDS011;3547;50.774;12.918;2023-05-10T12:20:23;2.80;;;2.58;;
7013;SDS011;3547;50.774;12.918;2023-05-10T12:22:59;2.80;;;2.25;;
7013;SDS011;3547;50.774;12.918;2023-05-10T12:25:54;2.95;;;2.22;;
7013;SDS011;3547;50.774;12.918;2023-05-10T12:28:32;6.03;;;2.58;;
7013;SDS011;3547;50.774;12.918;2023-05-10T12:31:04;2.38;;;2.05;;
7013;SDS011;3547;50.774;12.918;2023-05-10T12:33:37;2.88;;;2.58;;
7013;SDS011;3547;50.774;12.918;2023-05-10T12:36:25;3.47;;;2.55;;
7013;SDS011;3547;50.774;12.918;2023-05-10T12:38:59;2.83;;;2.38;;
7013;SDS011;3547;50.774;12.918;2023-05-10T12:41:28;2.40;;;2.03;;
7013;SDS011;3547;50.774;12.918;2023-05-10T12:43:58;2.88;;;2.33;;
7013;SDS011;3547;50.774;12.918;2023-05-10T12:46:24;3.20;;;2.38;;
7013;SDS011;3547;50.774;12.918;2023-05-10T12:48:53;3.40;;;2.35;;
7013;SDS011;3547;50.774;12.918;2023-05-10T12:51:24;3.50;;;2.40;;
7013;SDS011;3547;50.774;12.918;2023-05-10T12:53:52;2.83;;;2.38;;
7013;SDS011;3547;50.774;12.918;2023-05-10T12:56:37;3.28;;;2.60;;
7013;SDS011;3547;50.774;12.918;2023-05-10T12:59:06;3.85;;;2.42;;
7013;SDS011;3547;50.774;12.918;2023-05-10T13:01:32;5.60;;;2.63;;
7013;SDS011;3547;50.774;12.918;2023-05-10T13:03:59;5.13;;;2.78;;
7013;SDS011;3547;50.774;12.918;2023-05-10T13:06:25;2.92;;;2.40;;
7013;SDS011;3547;50.774;12.918;2023-05-10T13:08:52;4.22;;;3.00;;
7013;SDS011;3547;50.774;12.918;2023-05-10T13:11:22;3.88;;;2.75;;
7013;SDS011;3547;50.774;12.918;2023-05-10T13:13:49;4.05;;;2.72;;
7013;SDS011;3547;50.774;12.918;2023-05-10T13:16:16;3.40;;;2.60;;
7013;SDS011;3547;50.774;12.918;2023-05-10T13:18:43;5.18;;;3.20;;
7013;SDS011;3547;50.774;12.918;2023-05-10T13:21:19;3.40;;;2.92;;
7013;SDS011;3547;50.774;12.918;2023-05-10T13:23:48;3.10;;;2.67;;
7013;SDS011;3547;50.774;12.918;2023-05-10T13:26:20;4.20;;;2.85;;
7013;SDS011;3547;50.774;12.918;2023-05-10T13:28:55;3.85;;;2.63;;
7013;SDS011;3547;50.774;12.918;2023-05-10T13:31:21;2.58;;;2.38;;
7013;SDS011;3547;50.774;12.918;2023-05-10T13:33:48;3.25;;;2.60;;
7013;SDS011;3547;50.774;12.918;2023-05-10T13:36:20;3.58;;;2.88;;
7013;SDS011;3547;50.774;12.918;2023-05-10T13:38:46;4.93;;;2.63;;
7013;SDS011;3547;50.774;12.918;2023-05-10T13:41:17;3.03;;;2.63;;
7013;SDS011;3547;50.774;12.918;2023-05-10T13:43:47;2.90;;;2.42;;
7013;SDS011;3547;50.774;12.918;2023-05-10T13:46:14;3.42;;;2.83;;
7013;SDS011;3547;50.774;12.918;2023-05-10T13:48:42;2.63;;;2.28;;
7013;SDS011;3547;50.774;12.918;2023-05-10T13:51:09;3.78;;;2.85;;
7013;SDS011;3547;50.774;12.918;2023-05-10T13:53:35;3.03;;;2.28;;
7013;SDS011;3547;50.774;12.918;2023-05-10T13:56:01;3.08;;;2.78;;
7013;SDS011;3547;50.774;12.918;2023-05-10T13:58:28;2.58;;;2.38;;
7013;SDS011;3547;50.774;12.918;2023-05-10T14:00:57;3.20;;;2.63;;
7013;SDS011;3547;50.774;12.918;2023-05-10T14:03:23;3.05;;;2.55;;
7013;SDS011;3547;50.774;12.918;2023-05-10T14:05:50;2.25;;;2.05;;
7013;SDS011;3547;50.774;12.918;2023-05-10T14:08:16;2.97;;;2.53;;
7013;SDS011;3547;50.774;12.918;2023-05-10T14:10:43;2.42;;;2.10;;
7013;SDS011;3547;50.774;12.918;2023-05-10T14:13:09;3.22;;;2.55;;
7013;SDS011;3547;50.774;12.918;2023-05-10T14:15:35;2.55;;;2.35;;
7013;SDS011;3547;50.774;12.918;2023-05-10T14:18:01;2.28;;;2.05;;
7013;SDS011;3547;50.774;12.918;2023-05-10T14:20:28;4.30;;;2.80;;
7013;SDS011;3547;50.774;12.918;2023-05-10T14:22:54;2.85;;;2.22;;
7013;SDS011;3547;50.774;12.918;2023-05-10T14:25:20;2.67;;;2.47;;
7013;SDS011;3547;50.774;12.918;2023-05-10T14:27:46;2.95;;;2.45;;
7013;SDS011;3547;50.774;12.918;2023-05-10T14:30:13;4.22;;;2.35;;
7013;SDS011;3547;50.774;12.918;2023-05-10T14:32:40;3.60;;;2.25;;
7013;SDS011;3547;50.774;12.918;2023-05-10T14:35:06;6.28;;;2.28;;
7013;SDS011;3547;50.774;12.918;2023-05-10T14:37:33;2.45;;;2.17;;
7013;SDS011;3547;50.774;12.918;2023-05-10T14:39:59;2.75;;;2.47;;
7013;SDS011;3547;50.774;12.918;2023-05-10T14:42:25;3.40;;;2.50;;
7013;SDS011;3547;50.774;12.918;2023-05-10T14:44:53;2.22;;;1.85;;
7013;SDS011;3547;50.774;12.918;2023-05-10T14:47:19;2.97;;;2.05;;
7013;SDS011;3547;50.774;12.918;2023-05-10T14:49:45;2.60;;;2.40;;
7013;SDS011;3547;50.774;12.918;2023-05-10T14:52:12;1.70;;;1.52;;
7013;SDS011;3547;50.774;12.918;2023-05-10T14:54:39;2.50;;;1.80;;
7013;SDS011;3547;50.774;12.918;2023-05-10T14:57:06;1.70;;;1.55;;
7013;SDS011;3547;50.774;12.918;2023-05-10T14:59:32;3.40;;;2.50;;
7013;SDS011;3547;50.774;12.918;2023-05-10T15:01:59;3.38;;;2.00;;
7013;SDS011;3547;50.774;12.918;2023-05-10T15:04:25;1.98;;;1.80;;
7013;SDS011;3547;50.774;12.918;2023-05-10T15:06:51;1.90;;;1.80;;
7013;SDS011;3547;50.774;12.918;2023-05-10T15:09:17;3.42;;;2.13;;
7013;SDS011;3547;50.774;12.918;2023-05-10T15:11:44;2.15;;;1.88;;
7013;SDS011;3547;50.774;12.918;2023-05-10T15:14:10;2.53;;;1.90;;
7013;SDS011;3547;50.774;12.918;2023-05-10T15:16:36;2.30;;;2.10;;
7013;SDS011;3547;50.774;12.918;2023-05-10T15:19:02;3.15;;;2.13;;
7013;SDS011;3547;50.774;12.918;2023-05-10T15:21:28;2.75;;;2.03;;
7013;SDS011;3547;50.774;12.918;2023-05-10T15:24:00;2.90;;;1.73;;
7013;SDS011;3547;50.774;12.918;2023-05-10T15:26:26;2.22;;;2.03;;
7013;SDS011;3547;50.774;12.918;2023-05-10T15:29:03;2.92;;;1.70;;
7013;SDS011;3547;50.774;12.918;2023-05-10T15:31:32;2.40;;;1.80;;
7013;SDS011;3547;50.774;12.918;2023-05-10T15:34:28;2.42;;;1.75;;
7013;SDS011;3547;50.774;12.918;2023-05-10T15:36:56;1.70;;;1.60;;
7013;SDS011;3547;50.774;12.918;2023-05-10T15:39:25;1.35;;;1.25;;
7013;SDS011;3547;50.774;12.918;2023-05-10T15:41:58;1.10;;;1.00;;
7013;SDS011;3547;50.774;12.918;2023-05-10T15:44:24;0.98;;;0.85;;
7013;SDS011;3547;50.774;12.918;2023-05-10T15:46:59;1.25;;;1.15;;
7013;SDS011;3547;50.774;12.918;2023-05-10T15:49:29;3.25;;;1.13;;
7013;SDS011;3547;50.774;12.918;2023-05-10T15:51:55;1.55;;;1.10;;
7013;SDS011;3547;50.774;12.918;2023-05-10T15:54:25;1.60;;;1.20;;
7013;SDS011;3547;50.774;12.918;2023-05-10T15:56:54;1.23;;;1.13;;
7013;SDS011;3547;50.774;12.918;2023-05-10T15:59:20;1.90;;;1.70;;
7013;SDS011;3547;50.774;12.918;2023-05-10T16:01:47;2.33;;;2.13;;
7013;SDS011;3547;50.774;12.918;2023-05-10T16:04:17;2.20;;;2.00;;
7013;SDS011;3547;50.774;12.918;2023-05-10T16:06:46;3.42;;;2.10;;
7013;SDS011;3547;50.774;12.918;2023-05-10T16:09:12;1.85;;;1.73;;
7013;SDS011;3547;50.774;12.918;2023-05-10T16:11:41;1.98;;;1.77;;
7013;SDS011;3547;50.774;12.918;2023-05-10T16:14:08;4.38;;;2.08;;
7013;SDS011;3547;50.774;12.918;2023-05-10T16:16:35;2.75;;;2.42;;
7013;SDS011;3547;50.774;12.918;2023-05-10T16:19:10;6.85;;;1.73;;
7013;SDS011;3547;50.774;12.918;2023-05-10T16:21:36;2.35;;;1.90;;
7013;SDS011;3547;50.774;12.918;2023-05-10T16:24:03;3.38;;;2.00;;
7013;SDS011;3547;50.774;12.918;2023-05-10T16:26:29;2.00;;;1.77;;
7013;SDS011;3547;50.774;12.918;2023-05-10T16:28:56;1.70;;;1.60;;
7013;SDS011;3547;50.774;12.918;2023-05-10T16:31:22;1.65;;;1.50;;
7013;SDS011;3547;50.774;12.918;2023-05-10T16:33:48;2.03;;;1.80;;
7013;SDS011;3547;50.774;12.918;2023-05-10T16:36:15;4.13;;;2.05;;
7013;SDS011;3547;50.774;12.918;2023-05-10T16:38:41;1.65;;;1.55;;
7013;SDS011;3547;50.774;12.918;2023-05-10T16:41:08;2.67;;;1.88;;
7013;SDS011;3547;50.774;12.918;2023-05-10T16:43:34;2.50;;;1.95;;
7013;SDS011;3547;50.774;12.918;2023-05-10T16:49:23;1.85;;;1.75;;
7013;SDS011;3547;50.774;12.918;2023-05-10T16:51:51;3.33;;;1.92;;
7013;SDS011;3547;50.774;12.918;2023-05-10T16:54:17;4.97;;;2.13;;
7013;SDS011;3547;50.774;12.918;2023-05-10T16:56:43;2.53;;;1.75;;
7013;SDS011;3547;50.774;12.918;2023-05-10T16:59:09;1.75;;;1.65;;
7013;SDS011;3547;50.774;12.918;2023-05-10T17:01:43;2.58;;;2.13;;
7013;SDS011;3547;50.774;12.918;2023-05-10T17:04:12;2.78;;;2.22;;
7013;SDS011;3547;50.774;12.918;2023-05-10T17:06:38;5.47;;;2.70;;
7013;SDS011;3547;50.774;12.918;2023-05-10T17:09:05;4.45;;;2.00;;
7013;SDS011;3547;50.774;12.918;2023-05-10T17:11:31;2.30;;;1.77;;
7013;SDS011;3547;50.774;12.918;2023-05-10T17:13:58;2.40;;;1.85;;
7013;SDS011;3547;50.774;12.918;2023-05-10T17:16:25;3.17;;;2.28;;
7013;SDS011;3547;50.774;12.918;2023-05-10T17:18:52;2.00;;;1.60;;
7013;SDS011;3547;50.774;12.918;2023-05-10T17:21:18;1.95;;;1.63;;
7013;SDS011;3547;50.774;12.918;2023-05-10T17:23:49;1.60;;;1.50;;
7013;SDS011;3547;50.774;12.918;2023-05-10T17:26:17;3.50;;;1.92;;
7013;SDS011;3547;50.774;12.918;2023-05-10T17:28:51;1.63;;;1.52;;
7013;SDS011;3547;50.774;12.918;2023-05-10T17:35:09;2.03;;;1.80;;
7013;SDS011;3547;50.774;12.918;2023-05-10T17:37:40;3.45;;;1.95;;
7013;SDS011;3547;50.774;12.918;2023-05-10T17:40:10;2.65;;;1.92;;
7013;SDS011;3547;50.774;12.918;2023-05-10T17:42:39;1.77;;;1.63;;
